createdAt,value
2023-07-23T00:08:39.150Z,89.96
2023-07-23T00:23:42.246Z,88.89
2023-07-23T00:38:45.402Z,89.06
2023-07-23T00:53:50.194Z,89.28
2023-07-23T01:08:56.760Z,89.06
2023-07-23T01:23:59.994Z,88.26
2023-07-23T01:39:03.411Z,85.01
2023-07-23T01:54:06.557Z,85.01
2023-07-23T02:09:09.738Z,86.15
2023-07-23T02:24:12.888Z,86.36
2023-07-23T02:39:16.138Z,88.87
2023-07-23T02:54:19.210Z,89.29
2023-07-23T03:09:22.666Z,91.32
2023-07-23T03:24:25.937Z,94.17
2023-07-23T03:39:29.076Z,92.93
2023-07-23T03:54:32.992Z,92.61
2023-07-23T04:09:36.615Z,91.52
2023-07-23T04:24:39.910Z,87.92
2023-07-23T04:39:43.237Z,84.99
2023-07-23T04:54:46.574Z,83.09
2023-07-23T05:09:50.259Z,83.65
2023-07-23T05:24:53.483Z,79.96
2023-07-23T05:39:56.709Z,77.95
2023-07-23T05:54:59.919Z,75.12
2023-07-23T06:10:03.940Z,73.42
2023-07-23T06:25:07.564Z,73.18
2023-07-23T06:40:11.113Z,71.58
2023-07-23T06:55:15.214Z,71.63
2023-07-23T07:10:18.716Z,70.81
2023-07-23T07:25:21.974Z,69.73
2023-07-23T07:40:25.186Z,66.93
2023-07-23T07:55:28.777Z,63.05
2023-07-23T08:10:34.746Z,59.34
2023-07-23T08:25:39.204Z,56.83
2023-07-23T08:40:44.885Z,55.34
2023-07-23T08:55:48.580Z,57.49
2023-07-23T09:10:51.892Z,60.09
2023-07-23T09:25:59.007Z,61.10
2023-07-23T09:41:02.620Z,61.61
2023-07-23T09:56:06.308Z,62.65
2023-07-23T10:11:14.272Z,63.32
2023-07-23T10:26:23.309Z,62.98
2023-07-23T10:54:04.254Z,56.85
2023-07-23T11:09:14.582Z,51.28
2023-07-23T11:24:19.682Z,51.00
2023-07-23T11:39:25.760Z,52.39
2023-07-23T11:54:29.088Z,53.87
2023-07-23T12:09:35.745Z,55.59
2023-07-23T12:24:39.957Z,55.92
2023-07-23T12:39:43.925Z,57.63
2023-07-23T12:54:47.232Z,57.82
2023-07-23T13:09:51.553Z,57.09
2023-07-23T13:24:54.892Z,56.42
2023-07-23T13:39:58.197Z,55.91
2023-07-23T13:55:04.785Z,56.61
2023-07-23T14:10:08.841Z,55.87
2023-07-23T14:25:12.558Z,57.35
2023-07-23T14:40:16.245Z,57.47
2023-07-23T14:55:23.404Z,58.06
2023-07-23T15:24:02.924Z,60.21
2023-07-23T15:39:06.381Z,60.94
2023-07-23T15:54:10.132Z,60.96
2023-07-23T16:09:13.762Z,61.04
2023-07-23T16:24:17.310Z,61.40
2023-07-23T16:39:22.286Z,62.00
2023-07-23T16:54:25.699Z,62.50
2023-07-23T17:09:29.013Z,62.91
2023-07-23T17:24:32.495Z,63.52
2023-07-23T17:39:35.956Z,65.12
2023-07-23T17:54:39.346Z,66.98
2023-07-23T18:09:42.954Z,68.07
2023-07-23T18:24:46.272Z,68.74
2023-07-23T18:39:49.433Z,69.62
2023-07-23T18:54:52.691Z,69.54
2023-07-23T19:09:58.373Z,72.46
2023-07-23T19:25:02.546Z,76.51
2023-07-23T19:40:06.576Z,78.07
2023-07-23T20:01:13.625Z,80.44
2023-07-23T20:16:18.635Z,81.15
2023-07-23T20:31:23.898Z,82.35
2023-07-23T20:46:28.478Z,83.85
2023-07-23T21:01:31.905Z,84.92
2023-07-23T21:16:35.194Z,85.16
2023-07-23T21:31:38.995Z,85.96
2023-07-23T21:46:42.334Z,85.49
2023-07-23T22:01:45.857Z,85.15
2023-07-23T22:16:49.140Z,85.27
2023-07-23T22:31:52.439Z,85.66
2023-07-23T22:46:56.185Z,85.28
2023-07-23T23:01:59.933Z,85.78
2023-07-23T23:17:03.687Z,88.14
2023-07-23T23:32:08.166Z,88.95
2023-07-23T23:47:11.764Z,90.50
